sensor_id;sensor_type;location;lat;lon;timestamp;temperature;humidity
21340;DHT22;10828;47.064;15.422;2023-04-23T06:31:33;12.30;99.90
21340;DHT22;10828;47.064;15.422;2023-04-23T06:34:49;12.40;99.90
21340;DHT22;10828;47.064;15.422;2023-04-23T06:37:43;12.70;99.90
21340;DHT22;10828;47.064;15.422;2023-04-23T06:40:47;12.80;99.90
21340;DHT22;10828;47.064;15.422;2023-04-23T06:44:15;13.00;99.90
21340;DHT22;10828;47.064;15.422;2023-04-23T08:51:52;16.60;99.90
21340;DHT22;10828;47.064;15.422;2023-04-23T08:54:27;16.70;99.90
21340;DHT22;10828;47.064;15.422;2023-04-23T08:56:58;16.80;99.90
21340;DHT22;10828;47.064;15.422;2023-04-23T08:59:30;16.80;99.90
21340;DHT22;10828;47.064;15.422;2023-04-23T09:02:19;17.00;99.90
21340;DHT22;10828;47.064;15.422;2023-04-23T09:04:45;17.20;99.90
21340;DHT22;10828;47.064;15.422;2023-04-23T09:07:18;17.30;99.90
21340;DHT22;10828;47.064;15.422;2023-04-23T09:09:46;17.30;99.90
21340;DHT22;10828;47.064;15.422;2023-04-23T09:12:14;17.40;99.90
21340;DHT22;10828;47.064;15.422;2023-04-23T09:14:44;17.60;99.90
21340;DHT22;10828;47.064;15.422;2023-04-23T09:17:11;17.80;99.90
21340;DHT22;10828;47.064;15.422;2023-04-23T09:19:39;18.10;99.90
21340;DHT22;10828;47.064;15.422;2023-04-23T09:22:15;18.30;99.90
21340;DHT22;10828;47.064;15.422;2023-04-23T09:24:41;18.50;99.90
21340;DHT22;10828;47.064;15.422;2023-04-23T09:27:10;18.60;99.90
21340;DHT22;10828;47.064;15.422;2023-04-23T09:29:43;18.70;99.90
21340;DHT22;10828;47.064;15.422;2023-04-23T09:32:09;18.70;99.90
21340;DHT22;10828;47.064;15.422;2023-04-23T09:34:38;18.60;99.90
21340;DHT22;10828;47.064;15.422;2023-04-23T09:37:16;18.50;99.90
21340;DHT22;10828;47.064;15.422;2023-04-23T09:39:50;18.60;99.90
21340;DHT22;10828;47.064;15.422;2023-04-23T09:42:22;18.80;99.90
21340;DHT22;10828;47.064;15.422;2023-04-23T09:45:10;19.00;99.90
21340;DHT22;10828;47.064;15.422;2023-04-23T09:50:17;19.50;99.90
21340;DHT22;10828;47.064;15.422;2023-04-23T09:52:44;19.70;99.90
21340;DHT22;10828;47.064;15.422;2023-04-23T09:55:31;19.70;99.90
21340;DHT22;10828;47.064;15.422;2023-04-23T09:58:09;19.50;99.90
21340;DHT22;10828;47.064;15.422;2023-04-23T10:01:05;19.40;99.90
21340;DHT22;10828;47.064;15.422;2023-04-23T10:03:33;19.40;99.90
21340;DHT22;10828;47.064;15.422;2023-04-23T10:06:01;19.50;99.90
21340;DHT22;10828;47.064;15.422;2023-04-23T10:08:30;19.70;99.90
21340;DHT22;10828;47.064;15.422;2023-04-23T10:10:57;19.60;99.90
21340;DHT22;10828;47.064;15.422;2023-04-23T10:13:26;19.80;99.90
21340;DHT22;10828;47.064;15.422;2023-04-23T10:15:53;19.80;99.90
21340;DHT22;10828;47.064;15.422;2023-04-23T10:18:22;20.00;99.90
21340;DHT22;10828;47.064;15.422;2023-04-23T10:20:51;20.20;99.90
21340;DHT22;10828;47.064;15.422;2023-04-23T10:23:21;20.30;99.90
21340;DHT22;10828;47.064;15.422;2023-04-23T10:25:52;20.20;99.90
21340;DHT22;10828;47.064;15.422;2023-04-23T10:28:25;20.30;99.90
21340;DHT22;10828;47.064;15.422;2023-04-23T10:30:57;20.50;99.90
21340;DHT22;10828;47.064;15.422;2023-04-23T10:33:25;20.80;99.90
21340;DHT22;10828;47.064;15.422;2023-04-23T10:35:55;20.90;99.90
21340;DHT22;10828;47.064;15.422;2023-04-23T10:38:25;21.00;99.90
21340;DHT22;10828;47.064;15.422;2023-04-23T10:41:00;21.30;99.90
21340;DHT22;10828;47.064;15.422;2023-04-23T10:43:27;21.40;99.90
21340;DHT22;10828;47.064;15.422;2023-04-23T10:45:54;21.60;99.90
21340;DHT22;10828;47.064;15.422;2023-04-23T10:48:21;21.90;99.90
21340;DHT22;10828;47.064;15.422;2023-04-23T10:50:57;21.90;99.90
21340;DHT22;10828;47.064;15.422;2023-04-23T10:53:35;21.90;99.90
21340;DHT22;10828;47.064;15.422;2023-04-23T10:56:06;22.00;99.90
21340;DHT22;10828;47.064;15.422;2023-04-23T10:58:50;21.90;99.90
21340;DHT22;10828;47.064;15.422;2023-04-23T11:01:18;21.80;99.90
21340;DHT22;10828;47.064;15.422;2023-04-23T11:03:55;21.70;99.90
21340;DHT22;10828;47.064;15.422;2023-04-23T11:06:50;21.70;99.90
21340;DHT22;10828;47.064;15.422;2023-04-23T11:09:45;21.60;99.90
21340;DHT22;10828;47.064;15.422;2023-04-23T11:15:09;21.20;99.90
21340;DHT22;10828;47.064;15.422;2023-04-23T11:20:13;21.10;99.90
21340;DHT22;10828;47.064;15.422;2023-04-23T11:22:51;21.40;99.90
21340;DHT22;10828;47.064;15.422;2023-04-23T11:25:25;21.50;99.90
21340;DHT22;10828;47.064;15.422;2023-04-23T11:27:58;21.60;99.90
21340;DHT22;10828;47.064;15.422;2023-04-23T11:30:28;21.40;99.90
21340;DHT22;10828;47.064;15.422;2023-04-23T11:33:01;21.30;99.90
21340;DHT22;10828;47.064;15.422;2023-04-23T11:35:54;21.50;99.90
21340;DHT22;10828;47.064;15.422;2023-04-23T11:38:30;21.70;99.90
21340;DHT22;10828;47.064;15.422;2023-04-23T11:41:02;21.70;99.90
21340;DHT22;10828;47.064;15.422;2023-04-23T11:43:30;21.50;99.90
21340;DHT22;10828;47.064;15.422;2023-04-23T11:45:59;21.30;99.90
21340;DHT22;10828;47.064;15.422;2023-04-23T11:48:33;21.20;99.90
21340;DHT22;10828;47.064;15.422;2023-04-23T11:51:01;21.30;99.90
21340;DHT22;10828;47.064;15.422;2023-04-23T11:53:45;21.40;99.90
21340;DHT22;10828;47.064;15.422;2023-04-23T11:56:16;21.70;99.90
21340;DHT22;10828;47.064;15.422;2023-04-23T11:58:42;21.70;99.90
21340;DHT22;10828;47.064;15.422;2023-04-23T12:01:10;21.70;99.90
21340;DHT22;10828;47.064;15.422;2023-04-23T12:03:47;21.80;99.90
21340;DHT22;10828;47.064;15.422;2023-04-23T12:06:17;21.70;99.90
21340;DHT22;10828;47.064;15.422;2023-04-23T12:08:46;21.70;99.90
21340;DHT22;10828;47.064;15.422;2023-04-23T12:11:12;21.80;99.90
21340;DHT22;10828;47.064;15.422;2023-04-23T12:13:39;21.80;99.90
21340;DHT22;10828;47.064;15.422;2023-04-23T12:16:08;22.00;99.90
21340;DHT22;10828;47.064;15.422;2023-04-23T12:18:52;22.00;99.90
21340;DHT22;10828;47.064;15.422;2023-04-23T12:21:20;22.00;99.90
21340;DHT22;10828;47.064;15.422;2023-04-23T12:23:53;21.80;99.90
21340;DHT22;10828;47.064;15.422;2023-04-23T12:26:20;21.80;99.90
21340;DHT22;10828;47.064;15.422;2023-04-23T12:28:55;21.60;99.90
21340;DHT22;10828;47.064;15.422;2023-04-23T12:31:36;21.80;99.90
21340;DHT22;10828;47.064;15.422;2023-04-23T12:34:06;21.90;99.90
21340;DHT22;10828;47.064;15.422;2023-04-23T12:36:38;22.00;99.90
21340;DHT22;10828;47.064;15.422;2023-04-23T12:39:33;22.20;99.90
21340;DHT22;10828;47.064;15.422;2023-04-23T12:42:09;22.40;99.90
21340;DHT22;10828;47.064;15.422;2023-04-23T12:44:38;22.30;99.90
21340;DHT22;10828;47.064;15.422;2023-04-23T12:47:14;22.30;99.90
21340;DHT22;10828;47.064;15.422;2023-04-23T12:49:41;22.30;99.90
21340;DHT22;10828;47.064;15.422;2023-04-23T12:52:16;22.50;99.90
21340;DHT22;10828;47.064;15.422;2023-04-23T12:55:00;22.40;99.90
21340;DHT22;10828;47.064;15.422;2023-04-23T12:57:26;22.50;99.90
21340;DHT22;10828;47.064;15.422;2023-04-23T12:59:53;22.70;99.90
21340;DHT22;10828;47.064;15.422;2023-04-23T13:02:28;23.00;99.90
21340;DHT22;10828;47.064;15.422;2023-04-23T13:05:03;23.30;99.90
21340;DHT22;10828;47.064;15.422;2023-04-23T13:07:31;23.40;99.90
21340;DHT22;10828;47.064;15.422;2023-04-23T13:09:57;23.30;99.90
21340;DHT22;10828;47.064;15.422;2023-04-23T13:12:26;23.30;99.90
21340;DHT22;10828;47.064;15.422;2023-04-23T13:14:56;23.20;99.90
21340;DHT22;10828;47.064;15.422;2023-04-23T13:17:23;23.30;99.90
21340;DHT22;10828;47.064;15.422;2023-04-23T13:19:55;23.70;99.90
21340;DHT22;10828;47.064;15.422;2023-04-23T13:22:30;24.00;99.90
21340;DHT22;10828;47.064;15.422;2023-04-23T13:24:58;23.90;99.90
21340;DHT22;10828;47.064;15.422;2023-04-23T13:27:26;23.80;99.90
21340;DHT22;10828;47.064;15.422;2023-04-23T13:29:57;23.70;99.90
21340;DHT22;10828;47.064;15.422;2023-04-23T13:32:26;23.50;99.90
21340;DHT22;10828;47.064;15.422;2023-04-23T13:34:57;23.30;99.90
21340;DHT22;10828;47.064;15.422;2023-04-23T13:37:28;23.20;99.90
21340;DHT22;10828;47.064;15.422;2023-04-23T13:39:55;23.20;99.90
21340;DHT22;10828;47.064;15.422;2023-04-23T13:42:23;23.10;99.90
21340;DHT22;10828;47.064;15.422;2023-04-23T13:44:53;23.20;99.90
21340;DHT22;10828;47.064;15.422;2023-04-23T13:47:42;23.10;99.90
21340;DHT22;10828;47.064;15.422;2023-04-23T13:50:09;23.20;99.90
21340;DHT22;10828;47.064;15.422;2023-04-23T13:52:37;23.00;99.90
21340;DHT22;10828;47.064;15.422;2023-04-23T13:55:05;23.00;99.90
21340;DHT22;10828;47.064;15.422;2023-04-23T13:57:39;22.90;99.90
21340;DHT22;10828;47.064;15.422;2023-04-23T14:00:13;22.90;99.90
21340;DHT22;10828;47.064;15.422;2023-04-23T14:02:49;22.70;99.90
21340;DHT22;10828;47.064;15.422;2023-04-23T14:16:08;22.50;99.90
21340;DHT22;10828;47.064;15.422;2023-04-23T14:18:44;22.40;99.90
21340;DHT22;10828;47.064;15.422;2023-04-23T14:21:11;22.50;99.90
21340;DHT22;10828;47.064;15.422;2023-04-23T14:23:49;22.50;99.90
21340;DHT22;10828;47.064;15.422;2023-04-23T14:29:08;22.40;99.90
21340;DHT22;10828;47.064;15.422;2023-04-23T14:31:38;22.40;99.90
21340;DHT22;10828;47.064;15.422;2023-04-23T14:34:07;22.50;99.90
21340;DHT22;10828;47.064;15.422;2023-04-23T14:36:33;22.60;99.90
21340;DHT22;10828;47.064;15.422;2023-04-23T14:39:02;22.60;99.90
21340;DHT22;10828;47.064;15.422;2023-04-23T14:41:33;22.70;99.90
21340;DHT22;10828;47.064;15.422;2023-04-23T14:44:00;22.70;99.90
21340;DHT22;10828;47.064;15.422;2023-04-23T14:46:28;22.60;99.90
21340;DHT22;10828;47.064;15.422;2023-04-23T14:48:55;22.50;99.90
21340;DHT22;10828;47.064;15.422;2023-04-23T14:51:22;22.30;99.90
21340;DHT22;10828;47.064;15.422;2023-04-23T14:53:50;22.40;99.90
21340;DHT22;10828;47.064;15.422;2023-04-23T14:56:19;22.30;99.90
21340;DHT22;10828;47.064;15.422;2023-04-23T14:58:48;22.40;99.90
21340;DHT22;10828;47.064;15.422;2023-04-23T15:01:16;22.40;99.90
21340;DHT22;10828;47.064;15.422;2023-04-23T15:03:44;22.30;99.90
21340;DHT22;10828;47.064;15.422;2023-04-23T15:06:14;22.30;99.90
21340;DHT22;10828;47.064;15.422;2023-04-23T15:08:46;22.30;99.90
21340;DHT22;10828;47.064;15.422;2023-04-23T15:11:25;22.10;99.90
21340;DHT22;10828;47.064;15.422;2023-04-23T15:14:24;21.90;99.90
21340;DHT22;10828;47.064;15.422;2023-04-23T15:16:53;21.80;99.90
21340;DHT22;10828;47.064;15.422;2023-04-23T15:19:22;21.70;99.90
21340;DHT22;10828;47.064;15.422;2023-04-23T15:21:59;21.70;99.90
21340;DHT22;10828;47.064;15.422;2023-04-23T15:24:27;21.60;99.90
21340;DHT22;10828;47.064;15.422;2023-04-23T15:26:55;21.60;99.90
21340;DHT22;10828;47.064;15.422;2023-04-23T15:29:22;21.70;99.90
21340;DHT22;10828;47.064;15.422;2023-04-23T15:31:50;21.60;99.90
21340;DHT22;10828;47.064;15.422;2023-04-23T15:34:36;21.50;99.90
21340;DHT22;10828;47.064;15.422;2023-04-23T15:37:04;21.40;99.90
21340;DHT22;10828;47.064;15.422;2023-04-23T15:39:31;21.30;99.90
21340;DHT22;10828;47.064;15.422;2023-04-23T15:41:57;21.30;99.90
21340;DHT22;10828;47.064;15.422;2023-04-23T15:44:23;21.20;99.90
21340;DHT22;10828;47.064;15.422;2023-04-23T15:47:00;21.10;99.90
21340;DHT22;10828;47.064;15.422;2023-04-23T15:49:34;21.10;99.90
21340;DHT22;10828;47.064;15.422;2023-04-23T15:52:01;21.30;99.90
21340;DHT22;10828;47.064;15.422;2023-04-23T15:54:34;21.20;99.90
21340;DHT22;10828;47.064;15.422;2023-04-23T15:57:08;21.20;99.90
21340;DHT22;10828;47.064;15.422;2023-04-23T15:59:36;21.20;99.90
21340;DHT22;10828;47.064;15.422;2023-04-23T16:02:03;21.20;99.90
21340;DHT22;10828;47.064;15.422;2023-04-23T16:04:31;21.20;99.90
21340;DHT22;10828;47.064;15.422;2023-04-23T16:06:58;21.20;99.90
21340;DHT22;10828;47.064;15.422;2023-04-23T16:09:27;21.20;99.90
21340;DHT22;10828;47.064;15.422;2023-04-23T16:11:54;21.10;99.90
21340;DHT22;10828;47.064;15.422;2023-04-23T16:14:22;21.00;99.90
21340;DHT22;10828;47.064;15.422;2023-04-23T16:16:49;21.00;99.90
21340;DHT22;10828;47.064;15.422;2023-04-23T16:19:17;20.90;99.90
21340;DHT22;10828;47.064;15.422;2023-04-23T16:21:49;21.00;99.90
21340;DHT22;10828;47.064;15.422;2023-04-23T16:24:17;21.00;99.90
21340;DHT22;10828;47.064;15.422;2023-04-23T16:26:52;21.00;99.90
21340;DHT22;10828;47.064;15.422;2023-04-23T16:29:24;21.00;99.90
21340;DHT22;10828;47.064;15.422;2023-04-23T16:31:54;21.00;99.90
21340;DHT22;10828;47.064;15.422;2023-04-23T16:34:22;21.00;99.90
21340;DHT22;10828;47.064;15.422;2023-04-23T16:36:49;20.90;99.90
21340;DHT22;10828;47.064;15.422;2023-04-23T16:39:16;20.80;99.90
21340;DHT22;10828;47.064;15.422;2023-04-23T16:41:43;20.70;99.90
21340;DHT22;10828;47.064;15.422;2023-04-23T16:44:12;20.50;99.90
21340;DHT22;10828;47.064;15.422;2023-04-23T16:46:48;20.50;99.90
21340;DHT22;10828;47.064;15.422;2023-04-23T16:49:16;20.50;99.90
21340;DHT22;10828;47.064;15.422;2023-04-23T16:51:42;20.50;99.90
21340;DHT22;10828;47.064;15.422;2023-04-23T16:54:11;20.50;99.90
21340;DHT22;10828;47.064;15.422;2023-04-23T16:56:37;20.40;99.90
21340;DHT22;10828;47.064;15.422;2023-04-23T16:59:09;20.20;99.90
21340;DHT22;10828;47.064;15.422;2023-04-23T17:01:37;19.40;99.90
21340;DHT22;10828;47.064;15.422;2023-04-23T17:04:04;18.50;99.90
21340;DHT22;10828;47.064;15.422;2023-04-23T17:06:32;18.00;99.90
21340;DHT22;10828;47.064;15.422;2023-04-23T17:09:01;17.90;99.90
21340;DHT22;10828;47.064;15.422;2023-04-23T17:11:33;17.90;99.90
21340;DHT22;10828;47.064;15.422;2023-04-23T17:14:00;18.00;99.90
21340;DHT22;10828;47.064;15.422;2023-04-23T17:16:28;18.00;99.90
21340;DHT22;10828;47.064;15.422;2023-04-23T17:18:56;18.10;99.90
21340;DHT22;10828;47.064;15.422;2023-04-23T17:21:32;18.10;99.90
21340;DHT22;10828;47.064;15.422;2023-04-23T17:24:22;18.00;99.90
21340;DHT22;10828;47.064;15.422;2023-04-23T17:26:54;17.80;99.90
21340;DHT22;10828;47.064;15.422;2023-04-23T17:29:29;17.60;99.90
21340;DHT22;10828;47.064;15.422;2023-04-23T17:32:09;17.30;99.90
21340;DHT22;10828;47.064;15.422;2023-04-23T17:34:49;16.90;99.90
21340;DHT22;10828;47.064;15.422;2023-04-23T19:09:03;14.80;99.90
21340;DHT22;10828;47.064;15.422;2023-04-23T19:11:30;14.80;99.90
21340;DHT22;10828;47.064;15.422;2023-04-23T19:14:00;14.80;99.90
21340;DHT22;10828;47.064;15.422;2023-04-23T19:16:27;14.80;99.90
21340;DHT22;10828;47.064;15.422;2023-04-23T19:18:54;14.80;99.90
21340;DHT22;10828;47.064;15.422;2023-04-23T19:21:20;14.80;99.90
21340;DHT22;10828;47.064;15.422;2023-04-23T19:23:46;14.70;99.90
21340;DHT22;10828;47.064;15.422;2023-04-23T19:26:15;14.70;99.90
21340;DHT22;10828;47.064;15.422;2023-04-23T19:28:47;14.70;99.90
21340;DHT22;10828;47.064;15.422;2023-04-23T19:31:15;14.70;99.90
21340;DHT22;10828;47.064;15.422;2023-04-23T19:33:44;14.60;99.90
21340;DHT22;10828;47.064;15.422;2023-04-23T19:36:14;14.60;99.90
21340;DHT22;10828;47.064;15.422;2023-04-23T19:38:42;14.60;99.90
21340;DHT22;10828;47.064;15.422;2023-04-23T19:41:11;14.40;99.90
21340;DHT22;10828;47.064;15.422;2023-04-23T19:43:40;14.40;99.90
21340;DHT22;10828;47.064;15.422;2023-04-23T19:46:08;14.40;99.90
21340;DHT22;10828;47.064;15.422;2023-04-23T19:48:36;14.40;99.90
21340;DHT22;10828;47.064;15.422;2023-04-23T19:51:03;14.40;99.90
21340;DHT22;10828;47.064;15.422;2023-04-23T19:53:34;14.60;99.90
21340;DHT22;10828;47.064;15.422;2023-04-23T19:56:03;14.60;99.90
21340;DHT22;10828;47.064;15.422;2023-04-23T19:58:36;14.70;99.90
21340;DHT22;10828;47.064;15.422;2023-04-23T20:01:04;14.80;99.90
21340;DHT22;10828;47.064;15.422;2023-04-23T20:03:31;14.90;99.90
21340;DHT22;10828;47.064;15.422;2023-04-23T20:06:09;14.90;99.90
21340;DHT22;10828;47.064;15.422;2023-04-23T20:08:35;15.00;99.90
21340;DHT22;10828;47.064;15.422;2023-04-23T20:11:29;14.90;99.90
21340;DHT22;10828;47.064;15.422;2023-04-23T20:14:06;14.80;99.90
21340;DHT22;10828;47.064;15.422;2023-04-23T20:16:36;14.70;99.90
21340;DHT22;10828;47.064;15.422;2023-04-23T20:19:13;14.70;99.90
21340;DHT22;10828;47.064;15.422;2023-04-23T20:21:41;14.60;99.90
21340;DHT22;10828;47.064;15.422;2023-04-23T20:24:23;14.60;99.90
21340;DHT22;10828;47.064;15.422;2023-04-23T20:26:51;14.60;99.90
21340;DHT22;10828;47.064;15.422;2023-04-23T20:29:19;14.60;99.90
21340;DHT22;10828;47.064;15.422;2023-04-23T20:31:48;14.50;99.90
21340;DHT22;10828;47.064;15.422;2023-04-23T20:34:17;14.50;99.90
21340;DHT22;10828;47.064;15.422;2023-04-23T20:36:50;14.40;99.90
21340;DHT22;10828;47.064;15.422;2023-04-23T20:39:17;14.30;99.90
21340;DHT22;10828;47.064;15.422;2023-04-23T20:41:55;14.20;99.90
21340;DHT22;10828;47.064;15.422;2023-04-23T20:44:27;14.20;99.90
21340;DHT22;10828;47.064;15.422;2023-04-23T20:46:55;14.20;99.90
21340;DHT22;10828;47.064;15.422;2023-04-23T20:49:23;14.30;99.90
21340;DHT22;10828;47.064;15.422;2023-04-23T20:51:53;14.20;99.90
21340;DHT22;10828;47.064;15.422;2023-04-23T20:54:19;14.20;99.90
21340;DHT22;10828;47.064;15.422;2023-04-23T20:56:45;14.20;99.90
21340;DHT22;10828;47.064;15.422;2023-04-23T20:59:25;14.30;99.90
21340;DHT22;10828;47.064;15.422;2023-04-23T21:02:00;14.30;99.90
21340;DHT22;10828;47.064;15.422;2023-04-23T21:05:03;14.20;99.90
21340;DHT22;10828;47.064;15.422;2023-04-23T21:07:43;14.10;99.90
21340;DHT22;10828;47.064;15.422;2023-04-23T21:10:27;14.10;99.90
21340;DHT22;10828;47.064;15.422;2023-04-23T21:16:23;14.30;99.90
21340;DHT22;10828;47.064;15.422;2023-04-23T21:19:04;14.30;99.90
21340;DHT22;10828;47.064;15.422;2023-04-23T21:25:04;14.10;99.90
21340;DHT22;10828;47.064;15.422;2023-04-23T21:28:03;14.20;99.90
21340;DHT22;10828;47.064;15.422;2023-04-23T21:30:43;14.20;99.90
21340;DHT22;10828;47.064;15.422;2023-04-23T21:33:20;14.20;99.90
21340;DHT22;10828;47.064;15.422;2023-04-23T21:35:49;14.00;99.90
21340;DHT22;10828;47.064;15.422;2023-04-23T21:38:33;13.80;99.90
21340;DHT22;10828;47.064;15.422;2023-04-23T21:41:08;13.60;99.90
21340;DHT22;10828;47.064;15.422;2023-04-23T21:43:49;13.60;99.90
21340;DHT22;10828;47.064;15.422;2023-04-23T21:46:16;13.60;99.90
21340;DHT22;10828;47.064;15.422;2023-04-23T21:48:47;13.50;99.90
21340;DHT22;10828;47.064;15.422;2023-04-23T21:51:20;13.40;99.90
21340;DHT22;10828;47.064;15.422;2023-04-23T21:53:48;13.40;99.90
21340;DHT22;10828;47.064;15.422;2023-04-23T21:56:28;13.30;99.90
21340;DHT22;10828;47.064;15.422;2023-04-23T21:58:57;13.30;99.90
21340;DHT22;10828;47.064;15.422;2023-04-23T22:01:23;13.30;99.90
21340;DHT22;10828;47.064;15.422;2023-04-23T22:03:58;13.30;99.90
21340;DHT22;10828;47.064;15.422;2023-04-23T22:06:27;13.30;99.90
21340;DHT22;10828;47.064;15.422;2023-04-23T22:08:53;13.30;99.90
21340;DHT22;10828;47.064;15.422;2023-04-23T22:11:22;13.40;99.90
21340;DHT22;10828;47.064;15.422;2023-04-23T22:13:59;13.40;99.90
21340;DHT22;10828;47.064;15.422;2023-04-23T22:16:27;13.40;99.90
21340;DHT22;10828;47.064;15.422;2023-04-23T22:18:55;13.30;99.90
21340;DHT22;10828;47.064;15.422;2023-04-23T22:21:24;13.30;99.90
21340;DHT22;10828;47.064;15.422;2023-04-23T22:23:51;13.20;99.90
21340;DHT22;10828;47.064;15.422;2023-04-23T22:26:18;13.10;99.90
21340;DHT22;10828;47.064;15.422;2023-04-23T22:28:46;13.10;99.90
21340;DHT22;10828;47.064;15.422;2023-04-23T22:31:19;13.10;99.90
21340;DHT22;10828;47.064;15.422;2023-04-23T22:33:47;13.00;99.90
21340;DHT22;10828;47.064;15.422;2023-04-23T22:36:14;12.90;99.90
21340;DHT22;10828;47.064;15.422;2023-04-23T22:38:42;12.80;99.90
21340;DHT22;10828;47.064;15.422;2023-04-23T22:41:10;12.80;99.90
21340;DHT22;10828;47.064;15.422;2023-04-23T22:43:38;12.80;99.90
21340;DHT22;10828;47.064;15.422;2023-04-23T22:46:04;12.70;99.90
